PWSweather.com
Personal Weather Stations
Station Observations
SARATOGA
Aldara Apartments, Saratoga Springs, UT 84045

Aldara ApartmentsSaratoga Springs, UT 84045

Lat: 40.384864, Lon: -111.913644

Elevation: 4531

Station Type: VantagePro 2

Latest ConditionsUpdated 12:19:07 AM MDT Monday, Aug 21, 2017
Currently Today's Max Today's Min Today's Average
Temperature 66.3°F19.1°C 68.6°F20.3°C 66.3°F19.1°C 67.3°F19.6°C
Dew Point 46.6°F8.1°C 47.4°F8.6°C 44.6°F7.0°C 46.4°F8.0°C
Winds 5.0 mph W8.0 kmh W 6.0 mph W9.7 kmh W - 3.7 mph 6.0 kmh
Wind Gusts 6.0 mph9.7 kmh 6.0 mph9.7 kmh - -
Humidity 49% 50% 42% 47%
Pressure 29.53 in1000.0 mb 29.53 in1000.0 mb 29.52 in999.7 mb -
Hour Temp Dew Point Humidity Winds Wind Gusts Pressure Precip Precip Rate Daily Precip Total
12:19 AM 66.3°F19.1°C 46.6°F8.1°C 49% 5.0 mph W8.0 kmh W 6.0 mph9.7 kmh 29.53 in1000.0 mb 0.00 in0.0 mm 0.00 in0.0 mm 0.00 in0.0 mm
12:18 AM 66.5°F19.2°C 46.2°F7.9°C 48% 6.0 mph W9.7 kmh W 6.0 mph9.7 kmh 29.53 in1000.0 mb 0.00 in0.0 mm 0.00 in0.0 mm 0.00 in0.0 mm
12:17 AM 66.6°F19.2°C 46.9°F8.3°C 49% 5.0 mph W8.0 kmh W 5.0 mph8.0 kmh 29.53 in1000.0 mb 0.00 in0.0 mm 0.00 in0.0 mm 0.00 in0.0 mm
12:16 AM 66.6°F19.2°C 46.9°F8.3°C 49% 4.0 mph W6.4 kmh W 5.0 mph8.0 kmh 29.53 in1000.0 mb 0.00 in0.0 mm 0.00 in0.0 mm 0.00 in0.0 mm
12:15 AM 66.6°F19.2°C 47.4°F8.6°C 50% 4.0 mph W6.4 kmh W 4.0 mph6.4 kmh 29.53 in1000.0 mb 0.00 in0.0 mm 0.00 in0.0 mm 0.00 in0.0 mm
12:14 AM 66.6°F19.2°C 47.4°F8.6°C 50% 2.0 mph W3.2 kmh W 4.0 mph6.4 kmh 29.52 in999.7 mb 0.00 in0.0 mm 0.00 in0.0 mm 0.00 in0.0 mm
12:13 AM 66.6°F19.2°C 47.4°F8.6°C 50% 2.0 mph W3.2 kmh W 4.0 mph6.4 kmh 29.53 in1000.0 mb 0.00 in0.0 mm 0.00 in0.0 mm 0.00 in0.0 mm
12:12 AM 66.5°F19.2°C 47.3°F8.5°C 50% 2.0 mph W3.2 kmh W 4.0 mph6.4 kmh 29.52 in999.7 mb 0.00 in0.0 mm 0.00 in0.0 mm 0.00 in0.0 mm
12:11 AM 66.6°F19.2°C 46.9°F8.3°C 49% 2.0 mph W3.2 kmh W 4.0 mph6.4 kmh 29.52 in999.7 mb 0.00 in0.0 mm 0.00 in0.0 mm 0.00 in0.0 mm
12:10 AM 66.7°F19.3°C 47.0°F8.3°C 49% 2.0 mph W3.2 kmh W 4.0 mph6.4 kmh 29.52 in999.7 mb 0.00 in0.0 mm 0.00 in0.0 mm 0.00 in0.0 mm
12:09 AM 66.8°F19.3°C 46.5°F8.1°C 48% 4.0 mph W6.4 kmh W 4.0 mph6.4 kmh 29.52 in999.7 mb 0.00 in0.0 mm 0.00 in0.0 mm 0.00 in0.0 mm
12:08 AM 67.1°F19.5°C 46.2°F7.9°C 47% 2.0 mph W3.2 kmh W 5.0 mph8.0 kmh 29.52 in999.7 mb 0.00 in0.0 mm 0.00 in0.0 mm 0.00 in0.0 mm
12:07 AM 67.4°F19.7°C 46.5°F8.1°C 47% 2.0 mph W3.2 kmh W 6.0 mph9.7 kmh 29.52 in999.7 mb 0.00 in0.0 mm 0.00 in0.0 mm 0.00 in0.0 mm
12:06 AM 67.7°F19.8°C 46.2°F7.9°C 46% 4.0 mph W6.4 kmh W 6.0 mph9.7 kmh 29.52 in999.7 mb 0.00 in0.0 mm 0.00 in0.0 mm 0.00 in0.0 mm
12:05 AM 68.0°F20.0°C 46.5°F8.1°C 46% 5.0 mph W8.0 kmh W 6.0 mph9.7 kmh 29.52 in999.7 mb 0.00 in0.0 mm 0.00 in0.0 mm 0.00 in0.0 mm
12:04 AM 68.3°F20.2°C 46.2°F7.9°C 45% 5.0 mph W8.0 kmh W 5.0 mph8.0 kmh 29.52 in999.7 mb 0.00 in0.0 mm 0.00 in0.0 mm 0.00 in0.0 mm
12:03 AM 68.5°F20.3°C 45.8°F7.7°C 44% 2.0 mph W3.2 kmh W 5.0 mph8.0 kmh 29.52 in999.7 mb 0.00 in0.0 mm 0.00 in0.0 mm 0.00 in0.0 mm
12:02 AM 68.6°F20.3°C 45.2°F7.3°C 43% 5.0 mph W8.0 kmh W 6.0 mph9.7 kmh 29.52 in999.7 mb 0.00 in0.0 mm 0.00 in0.0 mm 0.00 in0.0 mm
12:01 AM 68.6°F20.3°C 44.6°F7.0°C 42% 5.0 mph W8.0 kmh W 6.0 mph9.7 kmh 29.52 in999.7 mb 0.00 in0.0 mm 0.00 in0.0 mm 0.00 in0.0 mm
12:00 AM 68.6°F20.3°C 45.2°F7.3°C 43% 6.0 mph W9.7 kmh W 6.0 mph9.7 kmh 29.52 in999.7 mb 0.00 in0.0 mm 0.00 in0.0 mm 0.00 in0.0 mm